KAVXKSNA

Guest
Details From KAVX - Catalina
To KSNA - Orange County - John Wayne
Flight Number -
Tags generated
Created
Modified
Stats Distance 32 nm / 59 km
Max Altitude 2,400 ft / 732 m
Waypoints 3
Social Downloads 0
Likes 0
Share VATSIM

Download

Looking for another format? Having issues loading an existing format? Contact us
Advertisement - Login to hide

Notes

Basic altitude profile: - Ascent Rate: 2500ft/min - Ascent Speed: 250kts - Cruise Altitude: 35000ft - Cruise Speed: 420kts - Descent Rate: 1500ft/min - Descent Speed: 250kts Options: - Use NATs: yes - Use PACOTS: yes - Use low airways: yes - Use high airways: yes

Route

KAVX ALBAS KSNA

ID Type Via Altitude Latitude Longitude Leg Dist Tot Dist Heading (true) Name
O KAVX APT - 0 ft / 0 m 33.40466˚ -118.41588˚ - 0 nm - Catalina
ALBAS FIX - 2,400 ft / 732 m 33.59963˚ -118.07782˚ 20 nm 20 nm 55° / 55° -
O KSNA APT - 0 ft / 0 m 33.67611˚ -117.86764˚ 11 nm 32 nm 66° / 66° Orange County - John Wayne

Altitude Profile

Advertisement - Login to hide

KAVX

Details ICAO KAVX (AVX)
Name Catalina
Region United States
Timezone America/Los_Angeles (UTC-8.0)
Stats Elevation 1,601 ft / 488 m (AMSL)
Location 33.404656° -118.415880°
Runways 1
Magnetic Variation 11.901° E

METAR

KAVX 131751Z AUTO 33004KT 10SM CLR 24/M17 A3008 RMK AO2 SLP159 T02441172 10256 20200 51006

Decode

TAF

Not found

Departure Runways

ID Width Length Bearing (true) Bearing (mag) Surface Threshold Offset Overrun Length
04 59 ft / 18 m 3,127 ft / 953 m 54.93° 43.03° Asphalt 131 ft / 40 m 0 ft / 0 m
22 59 ft / 18 m 3,127 ft / 953 m 234.93° 223.03° Asphalt 62 ft / 19 m 0 ft / 0 m

KSNA

Details ICAO KSNA (SNA)
Name Orange County - John Wayne
Region United States
Timezone America/Los_Angeles (UTC-8.0)
Stats Elevation 56 ft / 17 m (AMSL)
Location 33.676112° -117.867636°
Runways 2
Magnetic Variation 11.846° E

METAR

KSNA 131753Z 20004KT 10SM CLR 19/02 A3002 RMK AO2 SLP165 T01940022 10194 20083 50005

Decode

TAF

KSNA 131728Z 1318/1418 VRB05KT P6SM SKC FM141600 05005KT P6SM SKC WS020/05025KT

Decode

Destination Runways

ID Width Length Bearing (true) Bearing (mag) Surface Threshold Offset Overrun Length
01L 151 ft / 46 m 5,711 ft / 1,741 m 27.81° 15.96° Asphalt 0 ft / 0 m 1,050 ft / 320 m
01R 75 ft / 23 m 2,892 ft / 881 m 27.80° 15.95° Asphalt 0 ft / 0 m 400 ft / 122 m
19L 75 ft / 23 m 2,892 ft / 881 m 207.80° 195.95° Asphalt 0 ft / 0 m 151 ft / 46 m
19R 151 ft / 46 m 5,711 ft / 1,741 m 207.81° 195.96° Asphalt 0 ft / 0 m 194 ft / 59 m

Approach Navaids

Runway Type Ident Frequency Range Bearing (true) Bearing (mag) Slope Elevation
19R Localiser ISNA 111.75 MHz 18 nm / 33 km 207.80° 195.95° - 54 ft / 16 m (AMSL)
19R Localiser IOJW 108.30 MHz 18 nm / 33 km 195.00° 183.15° - 40 ft / 12 m (AMSL)
19R Glidescope ISNA 111.75 MHz 10 nm / 19 km 207.81° 195.96° 3.00° 43 ft / 13 m (AMSL)
19R DME IOJW 108.30 MHz 18 nm / 33 km - - - 40 ft / 12 m (AMSL)
19R DME ISNA 111.75 MHz 18 nm / 33 km - - - 68 ft / 21 m (AMSL)